sensor_id;sensor_type;location;lat;lon;timestamp;P1;durP1;ratioP1;P2;durP2;ratioP2
15931;SDS011;8065;49.520;11.284;2023-07-09T00:01:49;7.93;;;6.47;;
15931;SDS011;8065;49.520;11.284;2023-07-09T00:04:20;8.23;;;6.37;;
15931;SDS011;8065;49.520;11.284;2023-07-09T00:06:48;10.27;;;6.70;;
15931;SDS011;8065;49.520;11.284;2023-07-09T00:09:18;7.83;;;6.97;;
15931;SDS011;8065;49.520;11.284;2023-07-09T00:11:47;7.40;;;6.70;;
15931;SDS011;8065;49.520;11.284;2023-07-09T00:14:17;7.70;;;6.80;;
15931;SDS011;8065;49.520;11.284;2023-07-09T00:16:45;7.37;;;6.63;;
15931;SDS011;8065;49.520;11.284;2023-07-09T00:19:15;6.87;;;6.17;;
15931;SDS011;8065;49.520;11.284;2023-07-09T00:21:51;7.73;;;6.73;;
15931;SDS011;8065;49.520;11.284;2023-07-09T00:24:20;8.33;;;6.40;;
15931;SDS011;8065;49.520;11.284;2023-07-09T00:26:49;8.93;;;6.50;;
15931;SDS011;8065;49.520;11.284;2023-07-09T00:29:18;11.33;;;7.13;;
15931;SDS011;8065;49.520;11.284;2023-07-09T00:31:46;7.50;;;6.63;;
15931;SDS011;8065;49.520;11.284;2023-07-09T00:34:15;8.00;;;7.20;;
15931;SDS011;8065;49.520;11.284;2023-07-09T00:36:46;8.67;;;7.13;;
15931;SDS011;8065;49.520;11.284;2023-07-09T00:39:18;7.63;;;6.93;;
15931;SDS011;8065;49.520;11.284;2023-07-09T00:41:48;8.43;;;6.80;;
15931;SDS011;8065;49.520;11.284;2023-07-09T00:44:20;9.07;;;7.33;;
15931;SDS011;8065;49.520;11.284;2023-07-09T00:49:56;9.43;;;6.83;;
15931;SDS011;8065;49.520;11.284;2023-07-09T00:52:32;8.10;;;7.30;;
15931;SDS011;8065;49.520;11.284;2023-07-09T00:55:08;9.80;;;7.17;;
15931;SDS011;8065;49.520;11.284;2023-07-09T00:57:41;10.23;;;6.97;;
15931;SDS011;8065;49.520;11.284;2023-07-09T01:00:21;7.87;;;6.43;;
15931;SDS011;8065;49.520;11.284;2023-07-09T01:02:53;9.60;;;7.60;;
15931;SDS011;8065;49.520;11.284;2023-07-09T01:05:23;9.20;;;7.37;;
15931;SDS011;8065;49.520;11.284;2023-07-09T01:07:51;7.70;;;7.00;;
15931;SDS011;8065;49.520;11.284;2023-07-09T01:10:25;7.87;;;7.07;;
15931;SDS011;8065;49.520;11.284;2023-07-09T01:12:54;10.63;;;7.10;;
15931;SDS011;8065;49.520;11.284;2023-07-09T01:15:22;8.20;;;6.53;;
15931;SDS011;8065;49.520;11.284;2023-07-09T01:17:50;7.77;;;6.90;;
15931;SDS011;8065;49.520;11.284;2023-07-09T01:20:19;9.63;;;6.83;;
15931;SDS011;8065;49.520;11.284;2023-07-09T01:22:51;8.13;;;7.33;;
15931;SDS011;8065;49.520;11.284;2023-07-09T01:25:25;8.93;;;7.03;;
15931;SDS011;8065;49.520;11.284;2023-07-09T01:27:55;8.67;;;7.43;;
15931;SDS011;8065;49.520;11.284;2023-07-09T01:30:25;7.77;;;6.97;;
15931;SDS011;8065;49.520;11.284;2023-07-09T01:32:56;7.97;;;6.80;;
15931;SDS011;8065;49.520;11.284;2023-07-09T01:35:26;9.40;;;7.30;;
15931;SDS011;8065;49.520;11.284;2023-07-09T01:37:59;8.70;;;6.93;;
15931;SDS011;8065;49.520;11.284;2023-07-09T01:40:29;7.70;;;6.87;;
15931;SDS011;8065;49.520;11.284;2023-07-09T01:42:57;9.50;;;7.07;;
15931;SDS011;8065;49.520;11.284;2023-07-09T01:45:27;8.20;;;6.97;;
15931;SDS011;8065;49.520;11.284;2023-07-09T01:47:58;8.43;;;7.30;;
15931;SDS011;8065;49.520;11.284;2023-07-09T01:50:26;8.10;;;7.30;;
15931;SDS011;8065;49.520;11.284;2023-07-09T01:52:55;7.93;;;7.07;;
15931;SDS011;8065;49.520;11.284;2023-07-09T01:55:26;7.70;;;6.97;;
15931;SDS011;8065;49.520;11.284;2023-07-09T01:57:56;7.33;;;6.63;;
15931;SDS011;8065;49.520;11.284;2023-07-09T02:00:24;8.23;;;7.43;;
15931;SDS011;8065;49.520;11.284;2023-07-09T02:02:53;9.10;;;7.20;;
15931;SDS011;8065;49.520;11.284;2023-07-09T02:05:23;8.93;;;7.13;;
15931;SDS011;8065;49.520;11.284;2023-07-09T02:07:51;8.17;;;6.93;;
15931;SDS011;8065;49.520;11.284;2023-07-09T02:10:20;7.43;;;6.70;;
15931;SDS011;8065;49.520;11.284;2023-07-09T02:12:51;10.93;;;6.70;;
15931;SDS011;8065;49.520;11.284;2023-07-09T02:15:19;9.70;;;7.07;;
15931;SDS011;8065;49.520;11.284;2023-07-09T02:17:48;7.50;;;6.80;;
15931;SDS011;8065;49.520;11.284;2023-07-09T02:20:17;11.13;;;6.93;;
15931;SDS011;8065;49.520;11.284;2023-07-09T02:22:47;10.67;;;7.00;;
15931;SDS011;8065;49.520;11.284;2023-07-09T02:25:17;8.87;;;7.33;;
15931;SDS011;8065;49.520;11.284;2023-07-09T02:27:46;7.60;;;6.90;;
15931;SDS011;8065;49.520;11.284;2023-07-09T02:30:17;7.07;;;6.37;;
15931;SDS011;8065;49.520;11.284;2023-07-09T02:32:45;9.23;;;6.80;;
15931;SDS011;8065;49.520;11.284;2023-07-09T02:35:14;9.37;;;7.07;;
15931;SDS011;8065;49.520;11.284;2023-07-09T02:37:42;7.10;;;6.40;;
15931;SDS011;8065;49.520;11.284;2023-07-09T02:40:11;8.93;;;6.97;;
15931;SDS011;8065;49.520;11.284;2023-07-09T02:42:40;9.00;;;6.90;;
15931;SDS011;8065;49.520;11.284;2023-07-09T02:45:09;7.13;;;6.40;;
15931;SDS011;8065;49.520;11.284;2023-07-09T02:47:41;8.67;;;7.80;;
15931;SDS011;8065;49.520;11.284;2023-07-09T02:50:09;8.73;;;7.07;;
15931;SDS011;8065;49.520;11.284;2023-07-09T02:52:38;7.40;;;6.70;;
15931;SDS011;8065;49.520;11.284;2023-07-09T02:55:07;7.10;;;6.33;;
15931;SDS011;8065;49.520;11.284;2023-07-09T02:57:36;11.43;;;7.30;;
15931;SDS011;8065;49.520;11.284;2023-07-09T03:00:05;7.50;;;6.80;;
15931;SDS011;8065;49.520;11.284;2023-07-09T03:02:34;7.67;;;6.97;;
15931;SDS011;8065;49.520;11.284;2023-07-09T03:05:05;10.13;;;7.40;;
15931;SDS011;8065;49.520;11.284;2023-07-09T03:07:34;8.27;;;6.97;;
15931;SDS011;8065;49.520;11.284;2023-07-09T03:10:03;7.30;;;6.60;;
15931;SDS011;8065;49.520;11.284;2023-07-09T03:12:32;8.13;;;6.93;;
15931;SDS011;8065;49.520;11.284;2023-07-09T03:15:00;7.80;;;7.00;;
15931;SDS011;8065;49.520;11.284;2023-07-09T03:17:28;8.73;;;7.40;;
15931;SDS011;8065;49.520;11.284;2023-07-09T03:19:56;8.13;;;7.33;;
15931;SDS011;8065;49.520;11.284;2023-07-09T03:22:27;7.93;;;7.13;;
15931;SDS011;8065;49.520;11.284;2023-07-09T03:24:56;7.77;;;6.97;;
15931;SDS011;8065;49.520;11.284;2023-07-09T03:27:24;7.77;;;6.83;;
15931;SDS011;8065;49.520;11.284;2023-07-09T03:29:52;7.10;;;6.37;;
15931;SDS011;8065;49.520;11.284;2023-07-09T03:32:20;8.23;;;7.30;;
15931;SDS011;8065;49.520;11.284;2023-07-09T03:34:49;9.13;;;7.27;;
15931;SDS011;8065;49.520;11.284;2023-07-09T03:37:18;9.73;;;7.10;;
15931;SDS011;8065;49.520;11.284;2023-07-09T03:39:49;9.13;;;6.83;;
15931;SDS011;8065;49.520;11.284;2023-07-09T03:42:17;7.60;;;6.80;;
15931;SDS011;8065;49.520;11.284;2023-07-09T03:44:45;7.57;;;6.80;;
15931;SDS011;8065;49.520;11.284;2023-07-09T03:47:13;9.53;;;7.20;;
15931;SDS011;8065;49.520;11.284;2023-07-09T03:49:43;8.10;;;6.90;;
15931;SDS011;8065;49.520;11.284;2023-07-09T03:52:11;8.67;;;7.23;;
15931;SDS011;8065;49.520;11.284;2023-07-09T03:54:40;7.93;;;7.07;;
15931;SDS011;8065;49.520;11.284;2023-07-09T03:57:11;8.20;;;7.27;;
15931;SDS011;8065;49.520;11.284;2023-07-09T03:59:39;7.37;;;6.63;;
15931;SDS011;8065;49.520;11.284;2023-07-09T04:02:07;7.90;;;6.97;;
15931;SDS011;8065;49.520;11.284;2023-07-09T04:04:35;7.30;;;6.60;;
15931;SDS011;8065;49.520;11.284;2023-07-09T04:07:04;7.50;;;6.80;;
15931;SDS011;8065;49.520;11.284;2023-07-09T04:09:32;8.20;;;6.83;;
15931;SDS011;8065;49.520;11.284;2023-07-09T04:12:01;7.50;;;6.80;;
15931;SDS011;8065;49.520;11.284;2023-07-09T04:14:32;7.13;;;6.43;;
15931;SDS011;8065;49.520;11.284;2023-07-09T04:17:00;7.43;;;6.63;;
15931;SDS011;8065;49.520;11.284;2023-07-09T04:19:29;8.37;;;7.47;;
15931;SDS011;8065;49.520;11.284;2023-07-09T04:21:57;7.47;;;6.77;;
15931;SDS011;8065;49.520;11.284;2023-07-09T04:24:25;8.20;;;6.87;;
15931;SDS011;8065;49.520;11.284;2023-07-09T04:26:54;7.67;;;6.87;;
15931;SDS011;8065;49.520;11.284;2023-07-09T04:29:23;7.57;;;6.33;;
15931;SDS011;8065;49.520;11.284;2023-07-09T04:31:54;7.60;;;6.90;;
15931;SDS011;8065;49.520;11.284;2023-07-09T04:34:22;9.20;;;6.87;;
15931;SDS011;8065;49.520;11.284;2023-07-09T04:36:51;7.27;;;6.53;;
15931;SDS011;8065;49.520;11.284;2023-07-09T04:39:19;7.27;;;6.50;;
15931;SDS011;8065;49.520;11.284;2023-07-09T04:41:47;7.30;;;6.60;;
15931;SDS011;8065;49.520;11.284;2023-07-09T04:44:15;7.83;;;7.03;;
15931;SDS011;8065;49.520;11.284;2023-07-09T04:46:44;7.57;;;6.80;;
15931;SDS011;8065;49.520;11.284;2023-07-09T04:49:17;6.83;;;6.23;;
15931;SDS011;8065;49.520;11.284;2023-07-09T04:51:45;8.83;;;7.60;;
15931;SDS011;8065;49.520;11.284;2023-07-09T04:54:13;8.40;;;6.90;;
15931;SDS011;8065;49.520;11.284;2023-07-09T04:56:41;7.93;;;6.87;;
15931;SDS011;8065;49.520;11.284;2023-07-09T04:59:11;9.43;;;6.73;;
15931;SDS011;8065;49.520;11.284;2023-07-09T05:01:40;8.13;;;7.03;;
15931;SDS011;8065;49.520;11.284;2023-07-09T05:04:08;7.83;;;7.03;;
15931;SDS011;8065;49.520;11.284;2023-07-09T05:06:39;8.17;;;6.67;;
15931;SDS011;8065;49.520;11.284;2023-07-09T05:09:07;8.47;;;7.13;;
15931;SDS011;8065;49.520;11.284;2023-07-09T05:11:36;8.43;;;7.07;;
15931;SDS011;8065;49.520;11.284;2023-07-09T05:14:04;8.40;;;7.00;;
15931;SDS011;8065;49.520;11.284;2023-07-09T05:16:33;7.50;;;6.80;;
15931;SDS011;8065;49.520;11.284;2023-07-09T05:19:01;7.87;;;6.50;;
15931;SDS011;8065;49.520;11.284;2023-07-09T05:21:29;7.73;;;6.90;;
15931;SDS011;8065;49.520;11.284;2023-07-09T05:24:00;7.07;;;6.37;;
15931;SDS011;8065;49.520;11.284;2023-07-09T05:26:28;7.70;;;6.87;;
15931;SDS011;8065;49.520;11.284;2023-07-09T05:28:57;7.33;;;6.63;;
15931;SDS011;8065;49.520;11.284;2023-07-09T05:31:25;7.47;;;6.70;;
15931;SDS011;8065;49.520;11.284;2023-07-09T05:33:53;7.47;;;6.67;;
15931;SDS011;8065;49.520;11.284;2023-07-09T05:36:21;8.83;;;6.80;;
15931;SDS011;8065;49.520;11.284;2023-07-09T05:38:50;7.83;;;6.97;;
15931;SDS011;8065;49.520;11.284;2023-07-09T05:41:20;8.10;;;7.07;;
15931;SDS011;8065;49.520;11.284;2023-07-09T05:43:49;9.03;;;6.77;;
15931;SDS011;8065;49.520;11.284;2023-07-09T05:46:18;8.20;;;6.60;;
15931;SDS011;8065;49.520;11.284;2023-07-09T05:48:47;8.17;;;7.13;;
15931;SDS011;8065;49.520;11.284;2023-07-09T05:51:15;7.60;;;6.87;;
15931;SDS011;8065;49.520;11.284;2023-07-09T05:53:44;8.63;;;6.63;;
15931;SDS011;8065;49.520;11.284;2023-07-09T05:56:12;7.27;;;6.33;;
15931;SDS011;8065;49.520;11.284;2023-07-09T05:58:43;7.10;;;6.40;;
15931;SDS011;8065;49.520;11.284;2023-07-09T06:01:12;7.03;;;6.33;;
15931;SDS011;8065;49.520;11.284;2023-07-09T06:03:40;8.47;;;6.70;;
15931;SDS011;8065;49.520;11.284;2023-07-09T06:06:10;8.13;;;6.97;;
15931;SDS011;8065;49.520;11.284;2023-07-09T06:08:39;7.67;;;6.37;;
15931;SDS011;8065;49.520;11.284;2023-07-09T06:11:07;7.03;;;6.27;;
15931;SDS011;8065;49.520;11.284;2023-07-09T06:13:36;7.17;;;6.47;;
15931;SDS011;8065;49.520;11.284;2023-07-09T06:16:07;8.07;;;6.63;;
15931;SDS011;8065;49.520;11.284;2023-07-09T06:18:35;7.40;;;6.43;;
15931;SDS011;8065;49.520;11.284;2023-07-09T06:21:03;6.80;;;6.10;;
15931;SDS011;8065;49.520;11.284;2023-07-09T06:23:32;8.90;;;6.70;;
15931;SDS011;8065;49.520;11.284;2023-07-09T06:26:01;9.10;;;6.73;;
15931;SDS011;8065;49.520;11.284;2023-07-09T06:28:30;8.17;;;6.63;;
15931;SDS011;8065;49.520;11.284;2023-07-09T06:30:58;8.73;;;6.30;;
15931;SDS011;8065;49.520;11.284;2023-07-09T06:33:29;6.80;;;6.17;;
15931;SDS011;8065;49.520;11.284;2023-07-09T06:35:59;7.90;;;6.67;;
15931;SDS011;8065;49.520;11.284;2023-07-09T06:38:29;8.47;;;6.83;;
15931;SDS011;8065;49.520;11.284;2023-07-09T06:40:58;7.90;;;6.13;;
15931;SDS011;8065;49.520;11.284;2023-07-09T06:43:27;6.97;;;6.27;;
15931;SDS011;8065;49.520;11.284;2023-07-09T06:45:57;8.83;;;6.37;;
15931;SDS011;8065;49.520;11.284;2023-07-09T06:48:29;6.93;;;6.00;;
15931;SDS011;8065;49.520;11.284;2023-07-09T06:50:58;7.77;;;5.87;;
15931;SDS011;8065;49.520;11.284;2023-07-09T06:53:28;6.33;;;5.73;;
15931;SDS011;8065;49.520;11.284;2023-07-09T06:55:57;8.00;;;6.63;;
15931;SDS011;8065;49.520;11.284;2023-07-09T06:58:26;8.63;;;6.47;;
15931;SDS011;8065;49.520;11.284;2023-07-09T07:00:56;7.27;;;6.53;;
15931;SDS011;8065;49.520;11.284;2023-07-09T07:03:31;7.03;;;5.80;;
15931;SDS011;8065;49.520;11.284;2023-07-09T07:05:59;8.50;;;6.10;;
15931;SDS011;8065;49.520;11.284;2023-07-09T07:08:30;9.40;;;6.53;;
15931;SDS011;8065;49.520;11.284;2023-07-09T07:10:59;7.33;;;6.07;;
15931;SDS011;8065;49.520;11.284;2023-07-09T07:13:31;6.57;;;5.80;;
15931;SDS011;8065;49.520;11.284;2023-07-09T07:16:00;7.50;;;5.83;;
15931;SDS011;8065;49.520;11.284;2023-07-09T07:18:32;6.50;;;5.77;;
15931;SDS011;8065;49.520;11.284;2023-07-09T07:21:01;6.70;;;5.80;;
15931;SDS011;8065;49.520;11.284;2023-07-09T07:23:30;6.73;;;6.07;;
15931;SDS011;8065;49.520;11.284;2023-07-09T07:25:59;6.90;;;5.97;;
15931;SDS011;8065;49.520;11.284;2023-07-09T07:28:29;6.87;;;5.83;;
15931;SDS011;8065;49.520;11.284;2023-07-09T07:30:57;9.33;;;6.00;;
15931;SDS011;8065;49.520;11.284;2023-07-09T07:33:26;7.70;;;5.30;;
15931;SDS011;8065;49.520;11.284;2023-07-09T07:35:57;7.73;;;6.07;;
15931;SDS011;8065;49.520;11.284;2023-07-09T07:38:26;7.00;;;5.90;;
15931;SDS011;8065;49.520;11.284;2023-07-09T07:40:54;6.87;;;6.20;;
15931;SDS011;8065;49.520;11.284;2023-07-09T07:43:22;6.87;;;5.90;;
15931;SDS011;8065;49.520;11.284;2023-07-09T07:45:50;7.70;;;5.73;;
15931;SDS011;8065;49.520;11.284;2023-07-09T07:48:19;5.57;;;5.07;;
15931;SDS011;8065;49.520;11.284;2023-07-09T07:50:47;6.93;;;5.43;;
15931;SDS011;8065;49.520;11.284;2023-07-09T07:53:18;5.90;;;5.30;;
15931;SDS011;8065;49.520;11.284;2023-07-09T07:55:46;6.53;;;5.80;;
15931;SDS011;8065;49.520;11.284;2023-07-09T07:58:14;6.57;;;5.60;;
15931;SDS011;8065;49.520;11.284;2023-07-09T08:00:43;6.10;;;5.10;;
15931;SDS011;8065;49.520;11.284;2023-07-09T08:03:11;5.90;;;5.40;;
15931;SDS011;8065;49.520;11.284;2023-07-09T08:05:39;7.43;;;5.83;;
15931;SDS011;8065;49.520;11.284;2023-07-09T08:08:08;7.77;;;5.80;;
15931;SDS011;8065;49.520;11.284;2023-07-09T08:10:39;6.67;;;5.90;;
15931;SDS011;8065;49.520;11.284;2023-07-09T08:13:07;6.43;;;5.83;;
15931;SDS011;8065;49.520;11.284;2023-07-09T08:15:35;8.60;;;6.10;;
15931;SDS011;8065;49.520;11.284;2023-07-09T08:18:04;6.30;;;5.67;;
15931;SDS011;8065;49.520;11.284;2023-07-09T08:20:32;5.70;;;5.10;;
15931;SDS011;8065;49.520;11.284;2023-07-09T08:23:03;6.20;;;5.60;;
15931;SDS011;8065;49.520;11.284;2023-07-09T08:25:31;7.43;;;5.80;;
15931;SDS011;8065;49.520;11.284;2023-07-09T08:28:02;7.07;;;5.83;;
15931;SDS011;8065;49.520;11.284;2023-07-09T08:30:31;9.67;;;6.43;;
15931;SDS011;8065;49.520;11.284;2023-07-09T08:32:59;6.23;;;5.53;;
15931;SDS011;8065;49.520;11.284;2023-07-09T08:35:27;7.07;;;6.03;;
15931;SDS011;8065;49.520;11.284;2023-07-09T08:37:57;6.57;;;5.60;;
15931;SDS011;8065;49.520;11.284;2023-07-09T08:40:25;9.07;;;5.30;;
15931;SDS011;8065;49.520;11.284;2023-07-09T08:42:54;6.37;;;5.00;;
15931;SDS011;8065;49.520;11.284;2023-07-09T08:45:34;7.33;;;5.57;;
15931;SDS011;8065;49.520;11.284;2023-07-09T08:48:14;6.87;;;4.80;;
15931;SDS011;8065;49.520;11.284;2023-07-09T08:50:49;7.80;;;4.70;;
15931;SDS011;8065;49.520;11.284;2023-07-09T08:53:24;6.10;;;4.50;;
15931;SDS011;8065;49.520;11.284;2023-07-09T08:56:00;6.90;;;4.87;;
15931;SDS011;8065;49.520;11.284;2023-07-09T08:58:29;6.10;;;4.40;;
15931;SDS011;8065;49.520;11.284;2023-07-09T09:01:02;6.90;;;5.00;;
15931;SDS011;8065;49.520;11.284;2023-07-09T09:03:34;5.30;;;4.80;;
15931;SDS011;8065;49.520;11.284;2023-07-09T09:06:10;5.23;;;4.37;;
15931;SDS011;8065;49.520;11.284;2023-07-09T09:08:40;6.33;;;4.77;;
15931;SDS011;8065;49.520;11.284;2023-07-09T09:11:14;5.40;;;4.30;;
15931;SDS011;8065;49.520;11.284;2023-07-09T09:13:47;6.53;;;4.63;;
15931;SDS011;8065;49.520;11.284;2023-07-09T09:16:24;7.17;;;4.83;;
15931;SDS011;8065;49.520;11.284;2023-07-09T09:18:55;4.67;;;4.27;;
15931;SDS011;8065;49.520;11.284;2023-07-09T09:21:27;6.70;;;4.40;;
15931;SDS011;8065;49.520;11.284;2023-07-09T09:24:03;7.00;;;4.77;;
15931;SDS011;8065;49.520;11.284;2023-07-09T09:26:42;6.20;;;4.80;;
15931;SDS011;8065;49.520;11.284;2023-07-09T09:29:12;4.97;;;4.47;;
15931;SDS011;8065;49.520;11.284;2023-07-09T09:31:45;7.60;;;4.40;;
15931;SDS011;8065;49.520;11.284;2023-07-09T09:34:19;5.37;;;4.63;;
15931;SDS011;8065;49.520;11.284;2023-07-09T09:36:49;5.53;;;4.50;;
15931;SDS011;8065;49.520;11.284;2023-07-09T09:39:17;6.07;;;5.30;;
15931;SDS011;8065;49.520;11.284;2023-07-09T09:41:46;6.10;;;4.60;;
15931;SDS011;8065;49.520;11.284;2023-07-09T09:44:17;7.60;;;4.83;;
15931;SDS011;8065;49.520;11.284;2023-07-09T09:46:50;5.17;;;4.67;;
15931;SDS011;8065;49.520;11.284;2023-07-09T09:49:18;5.37;;;4.57;;
15931;SDS011;8065;49.520;11.284;2023-07-09T09:51:47;5.23;;;4.73;;
15931;SDS011;8065;49.520;11.284;2023-07-09T09:54:18;4.53;;;4.13;;
15931;SDS011;8065;49.520;11.284;2023-07-09T09:56:49;5.80;;;5.13;;
15931;SDS011;8065;49.520;11.284;2023-07-09T09:59:19;5.50;;;4.80;;
15931;SDS011;8065;49.520;11.284;2023-07-09T10:01:59;5.77;;;4.57;;
15931;SDS011;8065;49.520;11.284;2023-07-09T10:04:28;8.70;;;6.20;;
15931;SDS011;8065;49.520;11.284;2023-07-09T10:06:58;5.00;;;4.50;;
15931;SDS011;8065;49.520;11.284;2023-07-09T10:09:37;6.17;;;5.13;;
15931;SDS011;8065;49.520;11.284;2023-07-09T10:12:16;5.87;;;5.27;;
15931;SDS011;8065;49.520;11.284;2023-07-09T10:14:56;7.60;;;6.60;;
15931;SDS011;8065;49.520;11.284;2023-07-09T10:17:34;6.63;;;5.80;;
15931;SDS011;8065;49.520;11.284;2023-07-09T10:20:07;6.17;;;4.97;;
15931;SDS011;8065;49.520;11.284;2023-07-09T10:22:47;5.73;;;4.57;;
15931;SDS011;8065;49.520;11.284;2023-07-09T10:25:26;5.33;;;4.33;;
15931;SDS011;8065;49.520;11.284;2023-07-09T10:28:08;8.43;;;5.67;;
15931;SDS011;8065;49.520;11.284;2023-07-09T10:30:54;6.43;;;5.40;;
15931;SDS011;8065;49.520;11.284;2023-07-09T10:33:35;5.83;;;4.77;;
15931;SDS011;8065;49.520;11.284;2023-07-09T10:36:16;6.17;;;5.57;;
15931;SDS011;8065;49.520;11.284;2023-07-09T10:38:53;6.50;;;5.90;;
15931;SDS011;8065;49.520;11.284;2023-07-09T10:41:28;8.53;;;6.17;;
15931;SDS011;8065;49.520;11.284;2023-07-09T10:44:00;5.80;;;5.20;;
15931;SDS011;8065;49.520;11.284;2023-07-09T10:46:34;5.43;;;4.90;;
15931;SDS011;8065;49.520;11.284;2023-07-09T10:49:10;5.33;;;4.80;;
15931;SDS011;8065;49.520;11.284;2023-07-09T10:51:42;5.00;;;4.40;;
15931;SDS011;8065;49.520;11.284;2023-07-09T10:54:21;5.57;;;4.47;;
15931;SDS011;8065;49.520;11.284;2023-07-09T10:56:57;6.17;;;4.80;;
15931;SDS011;8065;49.520;11.284;2023-07-09T10:59:36;5.10;;;4.60;;
15931;SDS011;8065;49.520;11.284;2023-07-09T11:02:13;5.73;;;4.83;;
15931;SDS011;8065;49.520;11.284;2023-07-09T11:04:51;5.47;;;4.97;;
15931;SDS011;8065;49.520;11.284;2023-07-09T11:07:24;4.73;;;4.33;;
15931;SDS011;8065;49.520;11.284;2023-07-09T11:09:57;4.73;;;4.33;;
15931;SDS011;8065;49.520;11.284;2023-07-09T11:12:28;4.97;;;4.30;;
15931;SDS011;8065;49.520;11.284;2023-07-09T11:15:02;6.10;;;3.97;;
15931;SDS011;8065;49.520;11.284;2023-07-09T11:17:33;6.17;;;4.53;;
15931;SDS011;8065;49.520;11.284;2023-07-09T11:20:16;6.83;;;4.43;;
15931;SDS011;8065;49.520;11.284;2023-07-09T11:22:51;5.97;;;4.83;;
15931;SDS011;8065;49.520;11.284;2023-07-09T11:25:28;7.67;;;4.50;;
15931;SDS011;8065;49.520;11.284;2023-07-09T11:28:02;4.97;;;4.33;;
15931;SDS011;8065;49.520;11.284;2023-07-09T11:30:32;8.90;;;5.10;;
15931;SDS011;8065;49.520;11.284;2023-07-09T11:33:01;5.43;;;4.80;;
15931;SDS011;8065;49.520;11.284;2023-07-09T11:35:44;9.10;;;4.50;;
15931;SDS011;8065;49.520;11.284;2023-07-09T11:38:15;6.13;;;4.67;;
15931;SDS011;8065;49.520;11.284;2023-07-09T11:40:46;5.73;;;4.53;;
15931;SDS011;8065;49.520;11.284;2023-07-09T11:43:26;4.70;;;4.30;;
15931;SDS011;8065;49.520;11.284;2023-07-09T11:45:56;7.50;;;4.77;;
15931;SDS011;8065;49.520;11.284;2023-07-09T11:48:29;5.70;;;4.80;;
15931;SDS011;8065;49.520;11.284;2023-07-09T11:51:05;6.20;;;4.23;;
15931;SDS011;8065;49.520;11.284;2023-07-09T11:53:42;4.57;;;4.00;;
15931;SDS011;8065;49.520;11.284;2023-07-09T11:56:13;7.03;;;4.30;;
15931;SDS011;8065;49.520;11.284;2023-07-09T11:58:48;4.87;;;3.97;;
15931;SDS011;8065;49.520;11.284;2023-07-09T12:01:18;5.20;;;3.70;;
15931;SDS011;8065;49.520;11.284;2023-07-09T12:03:49;5.20;;;4.70;;
15931;SDS011;8065;49.520;11.284;2023-07-09T12:06:21;4.63;;;4.20;;
15931;SDS011;8065;49.520;11.284;2023-07-09T12:08:52;5.40;;;4.40;;
15931;SDS011;8065;49.520;11.284;2023-07-09T12:11:21;4.50;;;4.10;;
15931;SDS011;8065;49.520;11.284;2023-07-09T12:13:51;6.93;;;4.50;;
15931;SDS011;8065;49.520;11.284;2023-07-09T12:16:21;5.23;;;4.20;;
15931;SDS011;8065;49.520;11.284;2023-07-09T12:18:51;6.17;;;4.27;;
15931;SDS011;8065;49.520;11.284;2023-07-09T12:21:23;6.93;;;4.33;;
15931;SDS011;8065;49.520;11.284;2023-07-09T12:23:52;6.87;;;4.33;;
15931;SDS011;8065;49.520;11.284;2023-07-09T12:26:22;4.90;;;4.10;;
15931;SDS011;8065;49.520;11.284;2023-07-09T12:28:50;6.40;;;4.43;;
15931;SDS011;8065;49.520;11.284;2023-07-09T12:31:20;5.27;;;4.40;;
15931;SDS011;8065;49.520;11.284;2023-07-09T12:33:54;5.30;;;3.83;;
15931;SDS011;8065;49.520;11.284;2023-07-09T12:36:27;6.43;;;4.13;;
15931;SDS011;8065;49.520;11.284;2023-07-09T12:38:57;6.77;;;5.03;;
15931;SDS011;8065;49.520;11.284;2023-07-09T12:41:29;4.93;;;4.47;;
15931;SDS011;8065;49.520;11.284;2023-07-09T12:44:02;5.37;;;4.30;;
15931;SDS011;8065;49.520;11.284;2023-07-09T12:46:31;5.80;;;4.57;;
15931;SDS011;8065;49.520;11.284;2023-07-09T12:49:00;5.20;;;4.33;;
15931;SDS011;8065;49.520;11.284;2023-07-09T12:51:31;5.37;;;4.40;;
15931;SDS011;8065;49.520;11.284;2023-07-09T12:54:00;7.50;;;4.60;;
15931;SDS011;8065;49.520;11.284;2023-07-09T12:56:29;5.67;;;4.20;;
15931;SDS011;8065;49.520;11.284;2023-07-09T12:59:01;7.77;;;4.43;;
15931;SDS011;8065;49.520;11.284;2023-07-09T13:01:32;5.73;;;4.87;;
15931;SDS011;8065;49.520;11.284;2023-07-09T13:04:03;5.13;;;4.20;;
15931;SDS011;8065;49.520;11.284;2023-07-09T13:06:36;4.57;;;3.83;;
15931;SDS011;8065;49.520;11.284;2023-07-09T13:09:09;5.67;;;4.00;;
15931;SDS011;8065;49.520;11.284;2023-07-09T13:11:44;8.23;;;4.37;;
15931;SDS011;8065;49.520;11.284;2023-07-09T13:14:16;6.80;;;4.90;;
15931;SDS011;8065;49.520;11.284;2023-07-09T13:16:46;5.97;;;4.50;;
15931;SDS011;8065;49.520;11.284;2023-07-09T13:19:15;5.77;;;4.43;;
15931;SDS011;8065;49.520;11.284;2023-07-09T13:21:47;6.03;;;4.70;;
15931;SDS011;8065;49.520;11.284;2023-07-09T13:24:16;5.50;;;4.13;;
15931;SDS011;8065;49.520;11.284;2023-07-09T13:26:47;8.00;;;4.63;;
15931;SDS011;8065;49.520;11.284;2023-07-09T13:29:16;6.57;;;4.60;;
15931;SDS011;8065;49.520;11.284;2023-07-09T13:31:47;5.47;;;4.30;;
15931;SDS011;8065;49.520;11.284;2023-07-09T13:34:19;7.60;;;4.63;;
15931;SDS011;8065;49.520;11.284;2023-07-09T13:36:52;4.90;;;4.13;;
15931;SDS011;8065;49.520;11.284;2023-07-09T13:39:22;4.87;;;4.20;;
15931;SDS011;8065;49.520;11.284;2023-07-09T13:41:51;5.40;;;4.40;;
15931;SDS011;8065;49.520;11.284;2023-07-09T13:44:21;7.70;;;4.00;;
15931;SDS011;8065;49.520;11.284;2023-07-09T13:46:51;5.73;;;4.00;;
15931;SDS011;8065;49.520;11.284;2023-07-09T13:49:21;5.27;;;3.87;;
15931;SDS011;8065;49.520;11.284;2023-07-09T13:51:55;5.57;;;3.93;;
15931;SDS011;8065;49.520;11.284;2023-07-09T13:54:27;6.13;;;4.30;;
15931;SDS011;8065;49.520;11.284;2023-07-09T13:57:00;4.47;;;4.03;;
15931;SDS011;8065;49.520;11.284;2023-07-09T13:59:29;6.07;;;4.83;;
15931;SDS011;8065;49.520;11.284;2023-07-09T14:01:58;5.63;;;4.10;;
15931;SDS011;8065;49.520;11.284;2023-07-09T14:04:27;6.07;;;4.40;;
15931;SDS011;8065;49.520;11.284;2023-07-09T14:06:59;5.37;;;4.20;;
15931;SDS011;8065;49.520;11.284;2023-07-09T14:09:27;6.43;;;4.57;;
15931;SDS011;8065;49.520;11.284;2023-07-09T14:11:55;6.83;;;4.33;;
15931;SDS011;8065;49.520;11.284;2023-07-09T14:14:25;4.67;;;4.27;;
15931;SDS011;8065;49.520;11.284;2023-07-09T14:16:58;5.33;;;4.30;;
15931;SDS011;8065;49.520;11.284;2023-07-09T14:19:26;5.63;;;4.70;;
15931;SDS011;8065;49.520;11.284;2023-07-09T14:21:55;10.30;;;4.40;;
15931;SDS011;8065;49.520;11.284;2023-07-09T14:24:26;5.37;;;4.67;;
15931;SDS011;8065;49.520;11.284;2023-07-09T14:26:56;7.40;;;4.60;;
15931;SDS011;8065;49.520;11.284;2023-07-09T14:29:25;6.63;;;4.70;;
15931;SDS011;8065;49.520;11.284;2023-07-09T14:31:53;7.93;;;4.83;;
15931;SDS011;8065;49.520;11.284;2023-07-09T14:34:22;4.70;;;4.30;;
15931;SDS011;8065;49.520;11.284;2023-07-09T14:36:53;4.80;;;4.40;;
15931;SDS011;8065;49.520;11.284;2023-07-09T14:39:26;6.17;;;4.80;;
15931;SDS011;8065;49.520;11.284;2023-07-09T14:41:55;7.97;;;4.40;;
15931;SDS011;8065;49.520;11.284;2023-07-09T14:44:26;5.77;;;4.83;;
15931;SDS011;8065;49.520;11.284;2023-07-09T14:46:56;6.40;;;4.67;;
15931;SDS011;8065;49.520;11.284;2023-07-09T14:49:26;7.03;;;4.37;;
15931;SDS011;8065;49.520;11.284;2023-07-09T14:51:56;6.67;;;4.60;;
15931;SDS011;8065;49.520;11.284;2023-07-09T14:54:28;4.77;;;4.37;;
15931;SDS011;8065;49.520;11.284;2023-07-09T14:56:58;5.17;;;4.67;;
15931;SDS011;8065;49.520;11.284;2023-07-09T14:59:27;4.73;;;4.30;;
15931;SDS011;8065;49.520;11.284;2023-07-09T15:01:55;5.83;;;4.70;;
15931;SDS011;8065;49.520;11.284;2023-07-09T15:04:27;7.10;;;4.20;;
15931;SDS011;8065;49.520;11.284;2023-07-09T15:06:57;5.13;;;4.23;;
15931;SDS011;8065;49.520;11.284;2023-07-09T15:09:29;5.40;;;4.30;;
15931;SDS011;8065;49.520;11.284;2023-07-09T15:11:57;5.00;;;4.23;;